createdAt,value
2022-08-07T00:00:50.389Z,0.00
2022-08-07T00:02:36.920Z,0.00
2022-08-07T00:02:50.386Z,0.00
2022-08-07T00:03:49.362Z,0.00
2022-08-07T00:04:49.435Z,0.00
2022-08-07T00:05:49.330Z,0.00
2022-08-07T00:06:51.685Z,0.00
2022-08-07T00:07:50.633Z,0.00
2022-08-07T00:08:50.305Z,0.00
2022-08-07T00:10:04.657Z,0.00
2022-08-07T00:10:57.600Z,0.00
2022-08-07T00:11:55.477Z,0.00
2022-08-07T00:13:00.541Z,0.00
2022-08-07T00:13:50.255Z,0.00
2022-08-07T00:14:49.232Z,0.00
2022-08-07T00:15:50.881Z,0.00
2022-08-07T00:16:49.213Z,0.00
2022-08-07T00:17:49.232Z,0.00
2022-08-07T00:18:49.193Z,0.00
2022-08-07T00:20:02.475Z,0.00
2022-08-07T00:20:50.177Z,0.00
2022-08-07T00:21:56.705Z,0.00
2022-08-07T00:22:51.634Z,0.00
2022-08-07T00:23:49.145Z,0.00
2022-08-07T00:24:49.131Z,0.00
2022-08-07T00:26:00.381Z,0.00
2022-08-07T00:26:58.970Z,0.00
2022-08-07T00:27:52.370Z,0.00
2022-08-07T00:28:56.576Z,0.00
2022-08-07T00:29:50.075Z,0.00
2022-08-07T00:30:49.074Z,0.00
2022-08-07T00:31:49.219Z,0.00
2022-08-07T00:32:49.069Z,0.00
2022-08-07T00:33:49.029Z,0.00
2022-08-07T00:34:49.031Z,0.00
2022-08-07T00:35:49.611Z,0.00
2022-08-07T00:36:50.026Z,0.00
2022-08-07T00:37:48.987Z,0.00
2022-08-07T00:38:48.995Z,0.00
2022-08-07T00:39:54.513Z,0.00
2022-08-07T00:40:49.958Z,0.00
2022-08-07T00:41:53.715Z,0.00
2022-08-07T00:42:50.316Z,0.00
2022-08-07T00:44:01.617Z,0.00
2022-08-07T00:44:49.925Z,0.00
2022-08-07T00:45:48.918Z,0.00
2022-08-07T00:46:48.904Z,0.00
2022-08-07T00:48:09.741Z,0.00
2022-08-07T00:48:51.722Z,0.00
2022-08-07T00:50:20.315Z,0.00
2022-08-07T00:50:51.069Z,0.00
2022-08-07T00:51:57.071Z,0.00
2022-08-07T00:52:49.867Z,0.00
2022-08-07T00:53:50.805Z,0.00
2022-08-07T00:54:53.816Z,0.00
2022-08-07T00:56:02.980Z,0.00
2022-08-07T00:56:50.163Z,0.00
2022-08-07T00:57:55.226Z,0.00
2022-08-07T00:58:50.091Z,0.00
2022-08-07T00:59:48.774Z,0.00
2022-08-07T01:00:51.358Z,0.00
2022-08-07T01:01:48.815Z,0.00
2022-08-07T01:02:48.759Z,0.00
2022-08-07T01:03:56.941Z,0.00
2022-08-07T01:04:49.717Z,0.00
2022-08-07T01:05:53.591Z,0.00
2022-08-07T01:06:49.777Z,0.00
2022-08-07T01:07:48.707Z,0.00
2022-08-07T01:08:53.450Z,0.00
2022-08-07T01:10:06.196Z,0.00
2022-08-07T01:10:54.366Z,0.00
2022-08-07T01:12:09.537Z,0.00
2022-08-07T01:12:53.206Z,0.00
2022-08-07T01:13:56.068Z,0.00
2022-08-07T01:14:49.624Z,0.00
2022-08-07T01:16:01.051Z,0.00
2022-08-07T01:16:49.601Z,0.00
2022-08-07T01:17:48.610Z,0.00
2022-08-07T01:18:48.590Z,0.00
2022-08-07T01:19:54.211Z,0.00
2022-08-07T01:20:57.308Z,0.00
2022-08-07T01:21:48.551Z,0.00
2022-08-07T01:23:00.669Z,0.00
2022-08-07T01:23:49.533Z,0.00
2022-08-07T01:24:48.530Z,0.00
2022-08-07T01:25:55.347Z,0.00
2022-08-07T01:26:52.138Z,0.00
2022-08-07T01:27:51.123Z,0.00
2022-08-07T01:28:48.641Z,0.00
2022-08-07T01:29:48.468Z,0.00
2022-08-07T01:30:48.470Z,0.00
2022-08-07T01:31:48.832Z,0.00
2022-08-07T01:32:48.476Z,0.00
2022-08-07T01:33:55.886Z,0.00
2022-08-07T01:34:49.423Z,0.00
2022-08-07T01:35:53.978Z,0.00
2022-08-07T01:36:51.519Z,0.00
2022-08-07T01:37:48.405Z,0.00
2022-08-07T01:38:48.386Z,0.00
2022-08-07T01:39:48.417Z,0.00
2022-08-07T01:40:48.357Z,0.00
2022-08-07T01:42:07.465Z,0.00
2022-08-07T01:42:57.293Z,0.00
2022-08-07T01:43:49.347Z,0.00
2022-08-07T01:44:48.320Z,0.00
2022-08-07T01:45:48.307Z,0.00
2022-08-07T01:46:49.314Z,0.00
2022-08-07T01:48:18.169Z,0.00
2022-08-07T01:48:49.286Z,0.00
2022-08-07T01:49:48.281Z,0.00
2022-08-07T01:50:49.271Z,0.00
2022-08-07T01:52:03.175Z,0.00
2022-08-07T01:52:49.634Z,0.00
2022-08-07T01:54:00.775Z,0.00
2022-08-07T01:54:49.231Z,0.00
2022-08-07T01:55:48.225Z,0.00
2022-08-07T01:56:49.128Z,0.00
2022-08-07T01:58:01.632Z,0.00
2022-08-07T01:58:49.183Z,0.00
2022-08-07T01:59:48.245Z,0.00
2022-08-07T02:00:49.294Z,0.00
2022-08-07T02:02:02.795Z,0.00
2022-08-07T02:03:18.324Z,0.00
2022-08-07T02:03:51.183Z,0.00
2022-08-07T02:04:55.641Z,0.00
2022-08-07T02:05:59.290Z,0.00
2022-08-07T02:06:49.107Z,0.00
2022-08-07T02:07:50.489Z,0.00
2022-08-07T02:08:48.087Z,0.00
2022-08-07T02:09:52.876Z,0.00
2022-08-07T02:10:55.155Z,0.00
2022-08-07T02:12:02.830Z,0.00
2022-08-07T02:12:50.151Z,0.00
2022-08-07T02:13:58.278Z,0.00
2022-08-07T02:14:49.023Z,0.00
2022-08-07T02:15:48.015Z,0.00
2022-08-07T02:16:49.011Z,0.00
2022-08-07T02:17:49.601Z,0.00
2022-08-07T02:18:47.987Z,0.00
2022-08-07T02:20:06.625Z,0.00
2022-08-07T02:20:48.966Z,0.00
2022-08-07T02:21:55.119Z,0.00
2022-08-07T02:22:47.956Z,0.00
2022-08-07T02:23:49.328Z,0.00
2022-08-07T02:24:48.523Z,0.00
2022-08-07T02:26:31.624Z,0.00
2022-08-07T02:26:48.909Z,0.00
2022-08-07T02:27:51.959Z,0.00
2022-08-07T02:28:48.892Z,0.00
2022-08-07T02:29:54.155Z,0.00
2022-08-07T02:30:47.860Z,0.00
2022-08-07T02:31:48.553Z,0.00
2022-08-07T02:33:00.426Z,0.00
2022-08-07T02:34:03.105Z,0.00
2022-08-07T02:34:51.293Z,0.00
2022-08-07T02:36:30.525Z,0.00
2022-08-07T02:36:48.814Z,0.00
2022-08-07T02:37:47.816Z,0.00
2022-08-07T02:38:50.801Z,0.00
2022-08-07T02:40:02.085Z,0.00
2022-08-07T02:40:51.539Z,0.00
2022-08-07T02:41:54.444Z,0.00
2022-08-07T02:42:47.773Z,0.00
2022-08-07T02:43:49.028Z,0.00
2022-08-07T02:44:48.779Z,0.00
2022-08-07T02:46:00.556Z,0.00
2022-08-07T02:46:52.794Z,0.00
2022-08-07T02:47:49.376Z,0.00
2022-08-07T02:48:55.207Z,0.00
2022-08-07T02:49:57.529Z,0.00
2022-08-07T02:50:48.659Z,0.00
2022-08-07T02:51:51.879Z,0.00
2022-08-07T02:52:48.846Z,0.00
2022-08-07T02:53:47.643Z,0.00
2022-08-07T02:54:47.638Z,0.00
2022-08-07T02:56:03.472Z,0.00
2022-08-07T02:56:48.605Z,0.00
2022-08-07T02:57:47.619Z,0.00
2022-08-07T02:58:48.339Z,0.00
2022-08-07T02:59:55.231Z,0.00
2022-08-07T03:00:48.595Z,0.00
2022-08-07T03:01:47.615Z,0.00
2022-08-07T03:02:55.102Z,0.00
2022-08-07T03:03:50.062Z,0.00
2022-08-07T03:04:47.533Z,0.00
2022-08-07T03:05:47.518Z,0.00
2022-08-07T03:06:48.244Z,0.00
2022-08-07T03:08:07.531Z,0.00
2022-08-07T03:08:48.490Z,0.00
2022-08-07T03:09:52.487Z,4.00
2022-08-07T03:10:48.465Z,0.00
2022-08-07T03:11:52.379Z,0.00
2022-08-07T03:12:48.473Z,0.00
2022-08-07T03:13:49.824Z,4.00
2022-08-07T03:14:52.022Z,4.00
2022-08-07T03:15:56.163Z,0.00
2022-08-07T03:16:48.414Z,4.00
2022-08-07T03:17:53.806Z,0.00
2022-08-07T03:18:47.398Z,4.00
2022-08-07T03:19:52.846Z,4.00
2022-08-07T03:20:48.368Z,8.00
2022-08-07T03:21:50.865Z,4.00
2022-08-07T03:22:50.659Z,8.00
2022-08-07T03:24:27.780Z,8.00
2022-08-07T03:24:48.335Z,8.00
2022-08-07T03:25:47.316Z,12.00
2022-08-07T03:26:51.471Z,12.00
2022-08-07T03:28:08.925Z,12.00
2022-08-07T03:28:48.298Z,16.00
2022-08-07T03:29:49.570Z,20.00
2022-08-07T03:30:47.268Z,20.00
2022-08-07T03:31:49.802Z,24.00
2022-08-07T03:32:49.171Z,28.00
2022-08-07T03:33:48.247Z,32.00
2022-08-07T03:35:16.598Z,36.00
2022-08-07T03:35:50.176Z,44.00
2022-08-07T03:36:47.207Z,48.00
2022-08-07T03:37:54.028Z,56.00
2022-08-07T03:38:48.190Z,64.00
2022-08-07T03:40:13.275Z,72.00
2022-08-07T03:40:48.227Z,84.00
2022-08-07T03:41:50.739Z,92.00
2022-08-07T03:42:49.361Z,104.00
2022-08-07T03:43:57.368Z,120.00
2022-08-07T03:44:53.719Z,132.00
2022-08-07T03:45:47.780Z,148.00
2022-08-07T03:47:10.738Z,164.00
2022-08-07T03:47:51.449Z,184.00
2022-08-07T03:49:02.420Z,204.00
2022-08-07T03:49:52.483Z,228.00
2022-08-07T03:50:56.107Z,252.00
2022-08-07T03:51:55.314Z,280.00
2022-08-07T03:52:48.055Z,304.00
2022-08-07T03:54:05.884Z,332.00
2022-08-07T03:54:55.207Z,364.00
2022-08-07T03:55:58.005Z,396.00
2022-08-07T03:57:04.037Z,432.00
2022-08-07T03:58:34.344Z,468.00
2022-08-07T03:59:08.571Z,508.00
2022-08-07T04:00:01.701Z,548.00
2022-08-07T04:00:53.288Z,592.00
2022-08-07T04:01:47.006Z,636.00
2022-08-07T04:02:47.398Z,680.00
2022-08-07T04:03:49.824Z,732.00
2022-08-07T04:04:47.931Z,784.00
2022-08-07T04:05:46.919Z,832.00
2022-08-07T04:06:50.776Z,888.00
2022-08-07T04:07:47.741Z,940.00
2022-08-07T04:08:46.912Z,996.00
2022-08-07T04:09:50.313Z,1056.00
2022-08-07T04:10:53.893Z,1116.00
2022-08-07T04:12:27.405Z,1172.00
2022-08-07T04:12:47.853Z,1236.00
2022-08-07T04:14:09.914Z,1292.00
2022-08-07T04:14:49.148Z,1352.00
2022-08-07T04:15:49.073Z,1412.00
2022-08-07T04:16:58.556Z,1476.00
2022-08-07T04:18:56.738Z,1536.00
2022-08-07T04:18:59.356Z,1600.00
2022-08-07T04:19:52.011Z,1668.00
2022-08-07T04:20:54.687Z,1736.00
2022-08-07T04:21:59.353Z,1808.00
2022-08-07T04:22:53.645Z,1876.00
2022-08-07T04:24:03.506Z,1948.00
2022-08-07T04:24:47.723Z,2020.00
2022-08-07T04:25:46.713Z,2092.00
2022-08-07T04:26:46.696Z,2156.00
2022-08-07T04:27:59.196Z,2216.00
2022-08-07T04:28:47.687Z,2276.00
2022-08-07T04:29:58.219Z,2332.00
2022-08-07T04:30:55.300Z,2400.00
2022-08-07T04:32:02.967Z,2468.00
2022-08-07T04:32:47.860Z,2536.00
2022-08-07T04:33:46.637Z,2604.00
2022-08-07T04:34:47.623Z,2664.00
2022-08-07T04:35:50.239Z,2728.00
2022-08-07T04:36:48.721Z,2796.00
2022-08-07T04:38:03.035Z,2864.00
2022-08-07T04:38:47.585Z,2932.00
2022-08-07T04:39:49.795Z,2996.00
2022-08-07T04:40:52.531Z,3056.00
2022-08-07T04:41:50.356Z,3120.00
2022-08-07T04:42:46.568Z,3184.00
2022-08-07T04:44:13.090Z,3244.00
2022-08-07T04:44:54.547Z,3300.00
2022-08-07T04:46:00.873Z,3360.00
2022-08-07T04:46:59.255Z,3416.00
2022-08-07T04:47:57.073Z,3476.00
2022-08-07T04:48:47.488Z,3528.00
2022-08-07T04:49:47.475Z,3584.00
2022-08-07T04:50:52.993Z,3636.00
2022-08-07T04:51:47.449Z,3692.00
2022-08-07T04:52:51.055Z,3744.00
2022-08-07T04:54:05.487Z,3796.00
2022-08-07T04:54:50.646Z,3848.00
2022-08-07T04:58:11.570Z,4012.00
2022-08-07T04:58:11.623Z,3956.00
2022-08-07T04:58:15.791Z,3904.00
2022-08-07T05:00:12.442Z,4112.00
2022-08-07T05:00:47.402Z,4164.00
2022-08-07T05:01:46.368Z,4212.00
2022-08-07T05:02:46.360Z,4264.00
2022-08-07T05:04:07.737Z,4308.00
2022-08-07T05:04:50.308Z,4360.00
2022-08-07T05:05:52.945Z,4404.00
2022-08-07T05:06:51.262Z,4452.00
2022-08-07T05:07:46.330Z,4492.00
2022-08-07T05:09:00.878Z,4536.00
2022-08-07T05:09:47.274Z,4580.00
2022-08-07T05:10:46.267Z,4620.00
2022-08-07T05:11:57.057Z,4664.00
2022-08-07T05:12:52.867Z,4704.00
2022-08-07T05:14:54.219Z,4740.00
2022-08-07T05:14:58.988Z,4784.00
2022-08-07T05:15:47.219Z,4824.00
2022-08-07T05:16:46.195Z,4864.00
2022-08-07T05:17:50.795Z,4900.00
2022-08-07T05:18:47.180Z,4936.00
2022-08-07T05:19:46.178Z,4972.00
2022-08-07T05:20:46.167Z,5004.00
2022-08-07T05:21:59.923Z,5048.00
2022-08-07T05:22:47.577Z,5088.00
2022-08-07T05:23:46.140Z,5128.00
2022-08-07T05:24:46.113Z,5168.00
2022-08-07T05:26:11.238Z,5200.00
2022-08-07T05:26:47.215Z,5232.00
2022-08-07T05:28:16.424Z,5260.00
2022-08-07T05:28:49.958Z,5296.00
2022-08-07T05:29:51.098Z,5320.00
2022-08-07T05:30:47.212Z,5328.00
2022-08-07T05:31:51.069Z,5228.00
2022-08-07T05:32:47.065Z,5084.00
2022-08-07T05:33:51.251Z,5212.00
2022-08-07T05:34:47.026Z,5408.00
2022-08-07T05:35:46.019Z,5476.00
2022-08-07T05:36:48.987Z,5500.00
2022-08-07T05:37:45.990Z,5504.00
2022-08-07T05:39:01.105Z,5472.00
2022-08-07T05:40:07.040Z,5452.00
2022-08-07T05:40:50.559Z,5484.00
2022-08-07T05:42:00.432Z,5516.00
2022-08-07T05:42:56.319Z,5540.00
2022-08-07T05:44:07.748Z,5556.00
2022-08-07T05:45:04.183Z,5592.00
2022-08-07T05:45:48.361Z,5640.00
2022-08-07T05:46:45.902Z,5704.00
2022-08-07T05:48:01.596Z,5792.00
2022-08-07T05:48:58.189Z,5860.00
2022-08-07T05:49:46.874Z,5924.00
2022-08-07T05:50:45.856Z,5984.00
2022-08-07T05:51:46.353Z,6036.00
2022-08-07T05:52:45.840Z,6084.00
2022-08-07T05:54:13.486Z,6128.00
2022-08-07T05:54:55.890Z,6172.00
2022-08-07T05:56:03.869Z,6212.00
2022-08-07T05:56:46.808Z,6244.00
2022-08-07T05:57:45.795Z,6284.00
2022-08-07T05:58:52.410Z,6332.00
2022-08-07T05:59:55.904Z,6376.00
2022-08-07T06:00:51.032Z,6420.00
2022-08-07T06:01:45.828Z,6456.00
2022-08-07T06:02:45.745Z,6492.00
2022-08-07T06:03:57.056Z,6532.00
2022-08-07T06:04:46.728Z,6568.00
2022-08-07T06:05:49.065Z,6604.00
2022-08-07T06:06:47.711Z,6640.00
2022-08-07T06:08:13.716Z,6668.00
2022-08-07T06:08:46.902Z,6684.00
2022-08-07T06:10:05.431Z,6696.00
2022-08-07T06:10:46.674Z,6712.00
2022-08-07T06:11:45.655Z,6716.00
2022-08-07T06:12:45.637Z,6716.00
2022-08-07T06:14:11.676Z,6704.00
2022-08-07T06:14:49.597Z,6728.00
2022-08-07T06:15:45.619Z,6788.00
2022-08-07T06:16:45.600Z,6828.00
2022-08-07T06:17:53.494Z,6860.00
2022-08-07T06:18:48.325Z,6884.00
2022-08-07T06:19:51.876Z,6892.00
2022-08-07T06:20:50.511Z,6916.00
2022-08-07T06:22:16.687Z,6952.00
2022-08-07T06:23:01.823Z,6972.00
2022-08-07T06:24:45.691Z,6960.00
2022-08-07T06:24:56.784Z,6960.00
2022-08-07T06:25:54.848Z,6988.00
2022-08-07T06:26:46.513Z,7016.00
2022-08-07T06:28:01.375Z,7044.00
2022-08-07T06:28:46.504Z,7056.00
2022-08-07T06:29:45.480Z,7092.00
2022-08-07T06:30:46.177Z,7144.00
2022-08-07T06:31:49.904Z,7172.00
2022-08-07T06:32:45.448Z,7216.00
2022-08-07T06:33:45.473Z,7292.00
2022-08-07T06:34:45.572Z,7332.00
2022-08-07T06:36:06.110Z,7336.00
2022-08-07T06:36:46.398Z,7392.00
2022-08-07T06:37:45.607Z,7456.00
2022-08-07T06:38:58.394Z,7516.00
2022-08-07T06:40:13.237Z,7552.00
2022-08-07T06:40:46.502Z,7584.00
2022-08-07T06:42:01.116Z,7620.00
2022-08-07T06:42:46.657Z,7636.00
2022-08-07T06:43:46.205Z,7648.00
2022-08-07T06:44:45.334Z,7664.00
2022-08-07T06:45:45.311Z,7688.00
2022-08-07T06:46:53.667Z,7712.00
2022-08-07T06:47:57.329Z,7740.00
2022-08-07T06:48:46.294Z,7756.00
2022-08-07T06:49:50.774Z,7756.00
2022-08-07T06:50:47.747Z,7776.00
2022-08-07T06:51:49.856Z,7804.00
2022-08-07T06:52:45.281Z,7828.00
2022-08-07T06:55:27.359Z,7840.00
2022-08-07T06:55:34.156Z,7852.00
2022-08-07T06:55:59.906Z,7864.00
2022-08-07T06:56:48.468Z,7892.00
2022-08-07T06:57:52.020Z,7912.00
2022-08-07T07:00:12.145Z,7924.00
2022-08-07T07:00:13.438Z,7940.00
2022-08-07T07:00:46.163Z,7952.00
2022-08-07T07:01:48.710Z,7968.00
2022-08-07T07:02:48.818Z,7984.00
2022-08-07T07:03:48.211Z,8004.00
2022-08-07T07:04:55.060Z,8024.00
2022-08-07T07:06:02.931Z,8040.00
2022-08-07T07:06:57.282Z,8048.00
2022-08-07T07:07:59.623Z,8068.00
2022-08-07T07:08:46.748Z,8068.00
2022-08-07T07:09:45.072Z,8056.00
2022-08-07T07:10:47.295Z,8060.00
2022-08-07T07:12:09.902Z,8064.00
2022-08-07T07:12:48.868Z,8072.00
2022-08-07T07:13:58.370Z,8100.00
2022-08-07T07:14:46.022Z,8120.00
2022-08-07T07:15:45.015Z,8112.00
2022-08-07T07:16:50.897Z,8120.00
2022-08-07T07:17:45.206Z,8088.00
2022-08-07T07:18:48.010Z,8124.00
2022-08-07T07:19:57.708Z,8128.00
2022-08-07T07:20:45.957Z,8140.00
2022-08-07T07:22:11.417Z,8160.00
2022-08-07T07:24:06.369Z,8160.00
2022-08-07T07:24:08.642Z,8164.00
2022-08-07T07:24:58.450Z,8168.00
2022-08-07T07:26:32.841Z,8172.00
2022-08-07T07:26:51.963Z,8180.00
2022-08-07T07:27:58.489Z,8200.00
2022-08-07T07:29:38.464Z,8192.00
2022-08-07T07:30:09.091Z,8224.00
2022-08-07T07:30:45.862Z,8236.00
2022-08-07T07:31:46.501Z,8252.00
2022-08-07T07:32:44.829Z,8256.00
2022-08-07T07:33:44.847Z,8272.00
2022-08-07T07:34:45.817Z,8284.00
2022-08-07T07:36:03.962Z,8288.00
2022-08-07T07:36:47.885Z,8292.00
2022-08-07T07:37:49.414Z,8316.00
2022-08-07T07:38:46.204Z,8320.00
2022-08-07T07:39:45.772Z,8332.00
2022-08-07T07:40:45.763Z,8320.00
2022-08-07T07:42:01.941Z,8328.00
2022-08-07T07:42:51.348Z,8324.00
2022-08-07T07:44:13.771Z,8360.00
2022-08-07T07:44:45.727Z,8384.00
2022-08-07T07:46:40.189Z,8376.00
2022-08-07T07:46:54.451Z,8388.00
2022-08-07T07:47:52.408Z,8388.00
2022-08-07T07:48:46.041Z,8400.00
2022-08-07T07:50:35.771Z,8412.00
2022-08-07T07:50:45.662Z,8412.00
2022-08-07T07:51:57.435Z,8408.00
2022-08-07T07:52:46.923Z,8404.00
2022-08-07T07:53:51.400Z,8396.00
2022-08-07T07:54:51.173Z,8396.00
2022-08-07T07:55:57.451Z,8388.00
2022-08-07T07:56:45.608Z,8384.00
2022-08-07T07:57:53.814Z,8384.00
2022-08-07T07:58:45.603Z,8388.00
2022-08-07T07:59:52.321Z,8384.00
2022-08-07T08:00:50.850Z,8388.00
2022-08-07T08:02:03.812Z,8420.00
2022-08-07T08:03:01.074Z,8440.00
2022-08-07T08:04:06.301Z,8448.00
2022-08-07T08:04:45.575Z,8448.00
2022-08-07T08:05:54.966Z,8452.00
2022-08-07T08:06:51.990Z,8456.00
2022-08-07T08:08:00.066Z,8456.00
2022-08-07T08:08:45.497Z,8460.00
2022-08-07T08:09:52.122Z,8464.00
2022-08-07T08:10:45.458Z,8456.00
2022-08-07T08:11:47.159Z,8456.00
2022-08-07T08:12:58.894Z,8468.00
2022-08-07T08:13:54.704Z,8448.00
2022-08-07T08:14:45.422Z,8460.00
2022-08-07T08:15:59.098Z,8472.00
2022-08-07T08:16:49.401Z,8472.00
2022-08-07T08:18:18.450Z,8496.00
2022-08-07T08:18:45.403Z,8528.00
2022-08-07T08:20:18.222Z,8496.00
2022-08-07T08:20:45.354Z,8500.00
2022-08-07T08:21:56.928Z,8508.00
2022-08-07T08:22:54.284Z,8520.00
2022-08-07T08:23:45.367Z,8516.00
2022-08-07T08:24:44.967Z,8508.00
2022-08-07T08:25:49.016Z,8508.00
2022-08-07T08:26:45.295Z,8512.00
2022-08-07T08:27:56.361Z,8516.00
2022-08-07T08:28:45.444Z,8548.00
2022-08-07T08:29:55.505Z,8548.00
2022-08-07T08:30:51.105Z,8568.00
2022-08-07T08:32:16.929Z,8540.00
2022-08-07T08:32:49.177Z,8568.00
2022-08-07T08:33:49.807Z,8592.00
2022-08-07T08:34:45.213Z,8612.00
2022-08-07T08:35:49.710Z,8616.00
2022-08-07T08:36:46.339Z,8620.00
2022-08-07T08:38:00.842Z,8652.00
2022-08-07T08:38:45.189Z,8644.00
2022-08-07T08:39:55.068Z,8684.00
2022-08-07T08:40:46.847Z,8684.00
2022-08-07T08:41:57.109Z,8716.00
2022-08-07T08:42:45.148Z,8720.00
2022-08-07T08:43:56.148Z,8740.00
2022-08-07T08:44:45.787Z,8724.00
2022-08-07T08:45:59.279Z,8732.00
2022-08-07T08:46:45.884Z,8752.00
2022-08-07T08:47:52.036Z,8716.00
2022-08-07T08:48:45.091Z,8736.00
2022-08-07T08:49:46.853Z,8748.00
2022-08-07T08:50:45.063Z,8752.00
2022-08-07T08:52:13.239Z,8768.00
2022-08-07T08:52:51.679Z,8780.00
2022-08-07T08:53:44.040Z,8800.00
2022-08-07T08:54:44.015Z,8812.00
2022-08-07T08:55:55.211Z,8836.00
2022-08-07T08:56:47.644Z,8848.00
2022-08-07T08:57:43.989Z,8856.00
2022-08-07T08:58:44.001Z,8864.00
2022-08-07T08:59:48.030Z,8864.00
2022-08-07T09:00:48.622Z,8860.00
2022-08-07T09:01:49.088Z,8876.00
2022-08-07T09:02:46.268Z,8884.00
2022-08-07T09:03:49.379Z,8888.00
2022-08-07T09:04:44.903Z,8900.00
2022-08-07T09:05:43.907Z,8916.00
2022-08-07T09:06:47.931Z,8928.00
2022-08-07T09:07:46.502Z,8980.00
2022-08-07T09:08:46.765Z,9044.00
2022-08-07T09:09:43.857Z,8944.00
2022-08-07T09:10:44.346Z,8676.00
2022-08-07T09:11:54.195Z,8892.00
2022-08-07T09:12:53.098Z,8884.00
2022-08-07T09:13:43.887Z,8956.00
2022-08-07T09:14:50.761Z,8980.00
2022-08-07T09:16:22.153Z,8940.00
2022-08-07T09:16:45.576Z,8840.00
2022-08-07T09:18:00.428Z,8960.00
2022-08-07T09:18:47.298Z,9012.00
2022-08-07T09:19:53.179Z,9024.00
2022-08-07T09:20:57.807Z,9036.00
2022-08-07T09:22:22.455Z,9044.00
2022-08-07T09:24:34.200Z,9128.00
2022-08-07T09:24:54.865Z,9032.00
2022-08-07T09:24:58.511Z,7148.00
2022-08-07T09:25:54.315Z,8740.00
2022-08-07T09:26:47.925Z,9204.00
2022-08-07T09:28:00.331Z,9244.00
2022-08-07T09:30:03.804Z,9016.00
2022-08-07T09:30:04.693Z,9256.00
2022-08-07T09:30:46.346Z,8980.00
2022-08-07T09:31:49.387Z,9192.00
2022-08-07T09:32:43.636Z,8352.00
2022-08-07T09:33:57.190Z,9068.00
2022-08-07T09:34:44.620Z,9268.00
2022-08-07T09:36:03.282Z,9352.00
2022-08-07T09:36:46.735Z,9396.00
2022-08-07T09:37:53.433Z,9388.00
2022-08-07T09:38:49.937Z,9444.00
2022-08-07T09:39:54.267Z,9452.00
2022-08-07T09:40:44.559Z,9460.00
2022-08-07T09:42:03.146Z,9532.00
2022-08-07T09:42:45.605Z,9488.00
2022-08-07T09:44:20.001Z,9352.00
2022-08-07T09:45:03.550Z,9300.00
2022-08-07T09:47:42.630Z,9300.00
2022-08-07T09:47:50.042Z,9308.00
2022-08-07T09:47:56.208Z,9368.00
2022-08-07T09:48:55.903Z,9444.00
2022-08-07T09:50:01.995Z,9452.00
2022-08-07T09:50:44.461Z,9424.00
2022-08-07T09:52:17.071Z,9428.00
2022-08-07T09:52:44.435Z,9388.00
2022-08-07T09:53:55.146Z,9368.00
2022-08-07T09:54:44.425Z,9376.00
2022-08-07T09:56:03.379Z,9368.00
2022-08-07T09:56:44.401Z,9316.00
2022-08-07T09:57:46.391Z,9276.00
2022-08-07T09:58:43.397Z,9280.00
2022-08-07T10:00:00.387Z,9292.00
2022-08-07T10:00:44.866Z,9284.00
2022-08-07T10:01:50.971Z,9320.00
2022-08-07T10:02:55.295Z,9328.00
2022-08-07T10:04:03.304Z,9328.00
2022-08-07T10:04:45.877Z,9312.00
2022-08-07T10:06:01.276Z,9292.00
2022-08-07T10:06:49.206Z,9276.00
2022-08-07T10:07:52.586Z,9280.00
2022-08-07T10:08:43.285Z,9288.00
2022-08-07T10:10:01.147Z,9324.00
2022-08-07T10:11:16.398Z,9336.00
2022-08-07T10:12:02.326Z,9336.00
2022-08-07T10:12:52.602Z,9312.00
2022-08-07T10:14:00.716Z,9312.00
2022-08-07T10:14:54.337Z,9280.00
2022-08-07T10:15:44.937Z,9252.00
2022-08-07T10:16:43.245Z,9252.00
2022-08-07T10:18:01.778Z,9244.00
2022-08-07T10:18:44.184Z,9228.00
2022-08-07T10:19:43.201Z,9220.00
2022-08-07T10:20:44.403Z,9232.00
2022-08-07T10:22:12.179Z,9216.00
2022-08-07T10:22:45.325Z,9244.00
2022-08-07T10:24:05.410Z,9224.00
2022-08-07T10:24:44.221Z,9204.00
2022-08-07T10:25:43.671Z,9176.00
2022-08-07T10:26:44.201Z,9156.00
2022-08-07T10:27:46.379Z,9136.00
2022-08-07T10:28:43.412Z,9128.00
2022-08-07T10:29:45.916Z,8876.00
2022-08-07T10:30:45.081Z,7676.00
2022-08-07T10:31:45.323Z,9144.00
2022-08-07T10:32:53.140Z,9140.00
2022-08-07T10:34:06.877Z,9116.00
2022-08-07T10:34:45.263Z,9164.00
2022-08-07T10:35:56.641Z,9148.00
2022-08-07T10:36:45.590Z,9184.00
2022-08-07T10:38:00.684Z,9196.00
2022-08-07T10:38:49.583Z,9192.00
2022-08-07T10:40:02.612Z,9184.00
2022-08-07T10:40:43.953Z,9176.00
2022-08-07T10:41:51.470Z,9212.00
2022-08-07T10:42:43.958Z,9224.00
2022-08-07T10:43:42.947Z,9212.00
2022-08-07T10:44:45.465Z,9176.00
2022-08-07T10:45:57.697Z,9188.00
2022-08-07T10:46:43.980Z,9172.00
2022-08-07T10:47:52.931Z,9196.00
2022-08-07T10:48:44.100Z,9204.00
2022-08-07T10:49:49.236Z,9212.00
2022-08-07T10:50:44.882Z,9220.00
2022-08-07T10:52:02.307Z,9208.00
2022-08-07T10:52:48.641Z,9204.00
2022-08-07T10:53:44.730Z,9208.00
2022-08-07T10:54:42.856Z,9188.00
2022-08-07T10:55:43.825Z,9224.00
2022-08-07T10:56:42.817Z,9240.00
2022-08-07T10:57:42.787Z,9240.00
2022-08-07T10:58:42.783Z,9224.00
2022-08-07T10:59:47.403Z,9220.00
2022-08-07T11:00:50.598Z,9212.00
2022-08-07T11:01:52.135Z,9216.00
2022-08-07T11:02:48.961Z,9216.00
2022-08-07T11:03:52.804Z,9220.00
2022-08-07T11:04:43.753Z,9220.00
2022-08-07T11:05:49.167Z,9228.00
2022-08-07T11:06:44.588Z,9236.00
2022-08-07T11:07:58.475Z,9236.00
2022-08-07T11:08:43.692Z,9248.00
2022-08-07T11:10:07.861Z,9236.00
2022-08-07T11:10:43.662Z,9224.00
2022-08-07T11:11:43.661Z,9196.00
2022-08-07T11:12:43.653Z,9252.00
2022-08-07T11:14:57.435Z,9280.00
2022-08-07T11:15:00.808Z,9300.00
2022-08-07T11:15:43.624Z,9280.00
2022-08-07T11:16:45.892Z,9268.00
2022-08-07T11:17:45.848Z,9280.00
2022-08-07T11:18:42.592Z,9268.00
2022-08-07T11:19:42.601Z,9248.00
2022-08-07T11:20:42.755Z,9252.00
2022-08-07T11:21:43.114Z,9224.00
2022-08-07T11:22:46.151Z,9256.00
2022-08-07T11:23:42.584Z,9256.00
2022-08-07T11:24:45.623Z,9260.00
2022-08-07T11:25:49.698Z,9248.00
2022-08-07T11:26:49.837Z,9236.00
2022-08-07T11:28:01.693Z,9228.00
2022-08-07T11:28:43.504Z,9232.00
2022-08-07T11:29:48.127Z,9248.00
2022-08-07T11:30:43.470Z,9252.00
2022-08-07T11:31:42.466Z,9264.00
2022-08-07T11:32:42.463Z,9264.00
2022-08-07T11:33:54.115Z,9264.00
2022-08-07T11:34:43.449Z,9260.00
2022-08-07T11:35:59.121Z,9256.00
2022-08-07T11:36:43.418Z,9244.00
2022-08-07T11:37:58.057Z,9252.00
2022-08-07T11:38:43.394Z,9240.00
2022-08-07T11:39:59.492Z,9240.00
2022-08-07T11:40:49.536Z,9204.00
2022-08-07T11:42:02.394Z,9204.00
2022-08-07T11:42:43.357Z,9200.00
2022-08-07T11:44:10.870Z,9172.00
2022-08-07T11:44:52.640Z,9200.00
2022-08-07T11:45:53.105Z,9208.00
2022-08-07T11:46:43.306Z,9208.00
2022-08-07T11:47:58.780Z,9240.00
2022-08-07T11:48:54.003Z,9232.00
2022-08-07T11:50:25.390Z,9244.00
2022-08-07T11:50:44.532Z,9236.00
2022-08-07T11:51:46.653Z,9268.00
2022-08-07T11:52:43.259Z,9304.00
2022-08-07T11:53:43.385Z,9308.00
2022-08-07T11:54:54.504Z,9296.00
2022-08-07T11:56:24.975Z,9272.00
2022-08-07T11:56:43.215Z,9260.00
2022-08-07T11:58:00.525Z,9240.00
2022-08-07T11:58:43.192Z,9232.00
2022-08-07T12:00:11.499Z,9232.00
2022-08-07T12:00:48.795Z,9232.00
2022-08-07T12:01:59.135Z,9264.00
2022-08-07T12:02:52.016Z,9292.00
2022-08-07T12:03:45.476Z,9304.00
2022-08-07T12:04:43.172Z,9316.00
2022-08-07T12:05:49.594Z,9332.00
2022-08-07T12:06:55.337Z,9352.00
2022-08-07T12:07:43.398Z,9352.00
2022-08-07T12:08:42.512Z,9356.00
2022-08-07T12:09:42.093Z,9344.00
2022-08-07T12:10:42.229Z,9348.00
2022-08-07T12:11:43.473Z,9352.00
2022-08-07T12:12:43.047Z,9372.00
2022-08-07T12:13:47.461Z,9364.00
2022-08-07T12:14:43.056Z,9364.00
2022-08-07T12:16:05.469Z,9352.00
2022-08-07T12:16:43.017Z,9344.00
2022-08-07T12:17:59.833Z,9336.00
2022-08-07T12:18:45.525Z,9364.00
2022-08-07T12:19:56.385Z,9400.00
2022-08-07T12:20:42.989Z,9396.00
2022-08-07T12:22:35.657Z,9384.00
2022-08-07T12:22:56.340Z,9400.00
2022-08-07T12:24:07.317Z,9404.00
2022-08-07T12:24:42.958Z,9408.00
2022-08-07T12:26:05.700Z,9404.00
2022-08-07T12:26:47.376Z,9408.00
2022-08-07T12:28:09.646Z,9420.00